Time;durP1;ratioP1;P1;durP2;ratioP2;P2;SDS_P1;SDS_P2;PMS_P1;PMS_P2;Temp;Humidity;BMP_temperature;BMP_pressure;BME280_temperature;BME280_humidity;BME280_pressure;Samples;Min_cycle;Max_cycle;Signal;HPM_P1;HPM_P2
2022/06/28 00:02:24;;;;;;;4.27;3.87;;;21.30;99.90;;;;;;5053587;28;20341;-69
2022/06/28 00:04:50;;;;;;;4.47;3.90;;;21.40;99.90;;;;;;5035773;28;20252;-69
2022/06/28 00:09:44;;;;;;;5.10;4.60;;;21.30;99.90;;;;;;5050164;28;20220;-65
2022/06/28 00:12:09;;;;;;;4.30;3.90;;;21.30;99.90;;;;;;5052331;28;20403;-65
2022/06/28 00:17:20;;;;;;;4.80;4.40;;;21.20;99.90;;;;;;5052474;28;20175;-66
2022/06/28 00:19:45;;;;;;;5.47;4.97;;;21.20;99.90;;;;;;5051956;28;20905;-65
2022/06/28 00:22:11;;;;;;;6.83;4.80;;;21.00;99.90;;;;;;5052348;28;20168;-66
2022/06/28 00:24:36;;;;;;;5.97;5.33;;;20.80;99.90;;;;;;5051892;28;20230;-66
2022/06/28 00:27:02;;;;;;;5.67;5.13;;;20.60;99.90;;;;;;5052147;28;20274;-68
2022/06/28 00:29:28;;;;;;;6.40;5.80;;;20.40;99.90;;;;;;5051510;28;20203;-65
2022/06/28 00:31:53;;;;;;;7.10;6.37;;;20.40;99.90;;;;;;5051673;28;20603;-67
2022/06/28 00:34:19;;;;;;;5.90;5.40;;;20.30;99.90;;;;;;5050797;28;20593;-65
2022/06/28 00:36:44;;;;;;;6.53;5.77;;;20.20;99.90;;;;;;5051600;28;20251;-66
2022/06/28 00:39:10;;;;;;;6.50;5.90;;;20.10;99.90;;;;;;5033826;28;20245;-65
2022/06/28 00:41:37;;;;;;;6.40;5.80;;;20.10;99.90;;;;;;5053204;28;20212;-66
2022/06/28 00:44:03;;;;;;;6.30;5.67;;;20.00;99.90;;;;;;5053918;28;20901;-66
2022/06/28 00:46:30;;;;;;;8.00;7.30;;;19.90;99.90;;;;;;5053724;28;20401;-66
2022/06/28 00:48:56;;;;;;;7.37;6.70;;;19.90;99.90;;;;;;5051770;28;20436;-66
2022/06/28 00:51:24;;;;;;;7.60;6.80;;;19.90;99.90;;;;;;5051381;28;20776;-66
2022/06/28 00:53:50;;;;;;;6.50;6.00;;;19.90;99.90;;;;;;5051222;28;20207;-66
2022/06/28 00:56:16;;;;;;;6.97;6.20;;;19.80;99.90;;;;;;5051480;28;20406;-67
2022/06/28 00:58:41;;;;;;;7.87;6.80;;;19.90;99.90;;;;;;5051293;28;20681;-66
2022/06/28 01:01:07;;;;;;;6.43;5.83;;;19.80;99.90;;;;;;5051253;28;20181;-66
2022/06/28 01:03:32;;;;;;;7.80;7.10;;;19.80;99.90;;;;;;5051146;28;20259;-66
2022/06/28 01:05:58;;;;;;;7.40;6.70;;;19.80;99.90;;;;;;5051154;28;20611;-66
2022/06/28 01:08:24;;;;;;;8.27;7.53;;;19.70;99.90;;;;;;5051022;28;20212;-66
2022/06/28 01:10:49;;;;;;;7.20;6.60;;;19.70;99.90;;;;;;5051056;28;20166;-66
2022/06/28 01:13:15;;;;;;;8.17;7.17;;;19.70;99.90;;;;;;5050764;28;20199;-66
2022/06/28 01:15:41;;;;;;;7.37;6.73;;;19.70;99.90;;;;;;5050683;28;20167;-66
2022/06/28 01:18:09;;;;;;;7.83;7.03;;;19.70;99.90;;;;;;5050874;28;20613;-66
2022/06/28 01:20:35;;;;;;;8.40;7.60;;;19.70;99.90;;;;;;5051211;28;20411;-66
2022/06/28 01:23:01;;;;;;;7.00;6.40;;;19.70;99.90;;;;;;5049590;28;20505;-66
2022/06/28 01:25:26;;;;;;;8.37;6.87;;;19.70;99.90;;;;;;5050411;28;20416;-67
2022/06/28 01:27:54;;;;;;;6.70;6.10;;;19.60;99.90;;;;;;5050299;28;20198;-67
2022/06/28 01:30:19;;;;;;;7.80;6.53;;;19.70;99.90;;;;;;5050343;28;20185;-66
2022/06/28 01:32:45;;;;;;;8.10;7.30;;;19.60;99.90;;;;;;5050365;28;20434;-66
2022/06/28 01:35:11;;;;;;;8.00;6.97;;;19.60;99.90;;;;;;5050152;28;20239;-66
2022/06/28 01:37:37;;;;;;;7.60;6.83;;;19.50;99.90;;;;;;5050151;28;20433;-66
2022/06/28 01:40:07;;;;;;;7.53;6.70;;;19.50;99.90;;;;;;5050120;28;20362;-66
2022/06/28 01:42:33;;;;;;;6.33;5.83;;;19.50;99.90;;;;;;5050038;28;20858;-67
2022/06/28 01:44:59;;;;;;;7.70;6.93;;;19.50;99.90;;;;;;5049757;28;20415;-67
2022/06/28 01:47:27;;;;;;;9.40;8.37;;;19.50;99.90;;;;;;5048852;28;20431;-67
2022/06/28 01:49:54;;;;;;;7.57;6.83;;;19.50;99.90;;;;;;5049951;28;20917;-66
2022/06/28 01:52:20;;;;;;;8.03;7.33;;;19.50;99.90;;;;;;5049895;28;20448;-66
2022/06/28 01:54:46;;;;;;;8.10;6.63;;;19.40;99.90;;;;;;5049653;28;20786;-66
2022/06/28 01:57:11;;;;;;;8.80;6.90;;;19.40;99.90;;;;;;5049795;28;20409;-66
2022/06/28 01:59:38;;;;;;;7.87;7.13;;;19.50;99.90;;;;;;5049744;28;20166;-66
2022/06/28 02:02:05;;;;;;;7.27;6.57;;;19.50;99.90;;;;;;5049510;28;20189;-65
2022/06/28 02:04:31;;;;;;;7.03;6.10;;;19.40;99.90;;;;;;5049718;28;20420;-65
2022/06/28 02:06:57;;;;;;;6.70;6.10;;;19.40;99.90;;;;;;5049886;28;20493;-66
2022/06/28 02:09:24;;;;;;;8.10;7.00;;;19.40;99.90;;;;;;5049839;28;20439;-67
2022/06/28 02:11:50;;;;;;;7.33;6.67;;;19.50;99.90;;;;;;5050004;28;20444;-65
2022/06/28 02:14:16;;;;;;;7.87;7.10;;;19.50;99.90;;;;;;5049819;28;20460;-66
2022/06/28 02:16:42;;;;;;;6.47;5.93;;;19.40;99.90;;;;;;5049840;28;20418;-65
2022/06/28 02:19:07;;;;;;;8.23;7.33;;;19.40;99.90;;;;;;5050376;28;20614;-65
2022/06/28 02:21:38;;;;;;;7.03;6.33;;;19.40;99.90;;;;;;5050269;28;20401;-65
2022/06/28 02:24:04;;;;;;;8.00;7.20;;;19.30;99.90;;;;;;5049665;28;20174;-66
2022/06/28 02:26:32;;;;;;;8.03;6.97;;;19.40;99.90;;;;;;5049559;28;20562;-66
2022/06/28 02:28:59;;;;;;;8.70;7.73;;;19.40;99.90;;;;;;5049438;28;20421;-65
2022/06/28 02:31:24;;;;;;;7.47;6.67;;;19.20;99.90;;;;;;5049554;28;20518;-65
2022/06/28 02:33:50;;;;;;;6.80;6.17;;;19.20;99.90;;;;;;5049355;28;20498;-65
2022/06/28 02:41:45;;;;;;;6.57;6.07;;;19.20;99.90;;;;;;5049630;28;20423;-66
2022/06/28 02:44:11;;;;;;;6.80;6.10;;;19.10;99.90;;;;;;5049627;28;20495;-66
2022/06/28 02:46:37;;;;;;;7.83;6.10;;;19.20;99.90;;;;;;5049307;28;20832;-65
2022/06/28 02:49:03;;;;;;;5.93;5.33;;;19.20;99.90;;;;;;5049366;28;20194;-66
2022/06/28 02:51:29;;;;;;;7.80;6.50;;;19.20;99.90;;;;;;5049328;28;20413;-66
2022/06/28 02:53:55;;;;;;;6.27;5.63;;;19.00;99.90;;;;;;5049428;28;20950;-66
2022/06/28 02:56:21;;;;;;;7.17;6.47;;;19.00;99.90;;;;;;5031362;28;20199;-66
2022/06/28 02:58:47;;;;;;;5.20;4.70;;;19.00;99.90;;;;;;5051845;28;20416;-66
2022/06/28 03:01:13;;;;;;;5.83;5.00;;;19.00;99.90;;;;;;5053124;28;20473;-66
2022/06/28 03:03:39;;;;;;;5.80;5.20;;;19.00;99.90;;;;;;5053357;28;20414;-66
2022/06/28 03:06:05;;;;;;;5.43;4.93;;;18.90;99.90;;;;;;5052926;28;20503;-66
2022/06/28 03:08:31;;;;;;;4.90;4.40;;;19.00;99.90;;;;;;5052970;28;20525;-67
2022/06/28 03:10:57;;;;;;;5.10;4.60;;;19.00;99.90;;;;;;5052654;28;20437;-66
2022/06/28 03:13:22;;;;;;;7.73;5.63;;;19.00;99.90;;;;;;5052431;28;20234;-66
2022/06/28 03:15:48;;;;;;;5.13;4.10;;;19.00;99.90;;;;;;5052688;28;20671;-66
2022/06/28 03:18:14;;;;;;;5.10;4.30;;;19.00;99.90;;;;;;5052549;28;20601;-66
2022/06/28 03:20:40;;;;;;;6.83;5.53;;;19.00;99.90;;;;;;5052504;28;20175;-67
2022/06/28 03:23:06;;;;;;;6.60;5.73;;;19.00;99.90;;;;;;5052419;28;20434;-66
2022/06/28 03:25:32;;;;;;;4.63;4.13;;;19.00;99.90;;;;;;5052363;28;20448;-66
2022/06/28 03:27:58;;;;;;;5.33;4.83;;;18.90;99.90;;;;;;5052188;28;20688;-66
2022/06/28 03:30:23;;;;;;;6.70;6.00;;;18.90;99.90;;;;;;5052336;28;20634;-66
2022/06/28 03:32:49;;;;;;;5.60;4.73;;;18.90;99.90;;;;;;5052078;28;20198;-66
2022/06/28 03:35:14;;;;;;;5.67;4.80;;;18.80;99.90;;;;;;5052420;28;20600;-67
2022/06/28 03:37:40;;;;;;;4.70;4.30;;;18.80;99.90;;;;;;5052244;28;20620;-67
2022/06/28 03:40:07;;;;;;;4.90;4.40;;;18.90;99.90;;;;;;5052572;28;20216;-67
2022/06/28 03:42:32;;;;;;;5.97;5.10;;;18.90;99.90;;;;;;5052463;28;20272;-67
2022/06/28 03:44:58;;;;;;;6.07;4.40;;;18.80;99.90;;;;;;5051931;28;20441;-65
2022/06/28 03:47:24;;;;;;;5.23;4.40;;;18.60;99.90;;;;;;5051879;28;20555;-65
2022/06/28 03:49:49;;;;;;;5.47;4.87;;;18.60;99.90;;;;;;5052212;28;20669;-67
2022/06/28 03:52:15;;;;;;;5.40;3.83;;;18.70;99.90;;;;;;5052210;28;20662;-65
2022/06/28 03:54:41;;;;;;;4.63;4.23;;;18.70;99.90;;;;;;5051648;28;20202;-65
2022/06/28 03:57:07;;;;;;;4.87;3.87;;;18.70;99.90;;;;;;5051838;28;20493;-67
2022/06/28 03:59:32;;;;;;;4.30;3.90;;;18.80;99.90;;;;;;5052121;28;20266;-65
2022/06/28 04:01:58;;;;;;;5.63;4.00;;;18.80;99.90;;;;;;5051516;28;20622;-65
2022/06/28 04:04:23;;;;;;;4.23;3.80;;;18.80;99.90;;;;;;5051668;28;20173;-65
2022/06/28 04:06:49;;;;;;;4.50;3.43;;;18.70;99.90;;;;;;5051678;28;20640;-65
2022/06/28 04:09:15;;;;;;;5.10;3.57;;;18.70;99.90;;;;;;5050610;28;20206;-67
2022/06/28 04:11:40;;;;;;;4.97;3.33;;;18.60;99.90;;;;;;5051355;28;20172;-65
2022/06/28 04:14:06;;;;;;;5.70;4.23;;;18.60;99.90;;;;;;5051286;28;20209;-65
2022/06/28 04:16:32;;;;;;;3.93;3.50;;;18.60;99.90;;;;;;5051441;28;20160;-66
2022/06/28 04:18:59;;;;;;;3.83;3.47;;;18.60;99.90;;;;;;5051387;28;20220;-65
2022/06/28 04:21:24;;;;;;;4.50;4.07;;;18.60;99.90;;;;;;5051766;28;20397;-65
2022/06/28 04:23:50;;;;;;;4.00;3.50;;;18.60;99.90;;;;;;5051464;28;20431;-68
2022/06/28 04:26:16;;;;;;;3.33;3.03;;;18.60;99.90;;;;;;5051104;28;20589;-66
2022/06/28 04:28:41;;;;;;;4.13;3.50;;;18.60;99.90;;;;;;5051176;28;20186;-66
2022/06/28 04:31:07;;;;;;;3.50;2.93;;;18.60;99.90;;;;;;5051294;28;20246;-65
2022/06/28 04:33:34;;;;;;;3.27;2.93;;;18.50;99.90;;;;;;5051137;28;20318;-66
2022/06/28 04:36:00;;;;;;;4.30;4.00;;;18.50;99.90;;;;;;5051244;28;20447;-66
2022/06/28 04:38:25;;;;;;;4.87;3.73;;;18.30;99.90;;;;;;5051231;28;20863;-66
2022/06/28 04:40:51;;;;;;;3.73;3.30;;;18.30;99.90;;;;;;5053472;28;20173;-66
2022/06/28 04:43:16;;;;;;;3.57;2.90;;;18.30;99.90;;;;;;5054121;28;20211;-66
2022/06/28 04:45:42;;;;;;;4.73;3.60;;;18.20;99.90;;;;;;5052992;28;20166;-66
2022/06/28 04:48:08;;;;;;;4.50;3.40;;;18.30;99.90;;;;;;5050935;28;20207;-66
2022/06/28 04:50:33;;;;;;;4.27;3.87;;;18.30;99.90;;;;;;5050758;28;20247;-66
2022/06/28 04:52:59;;;;;;;3.97;3.63;;;18.20;99.90;;;;;;5050732;28;20261;-66
2022/06/28 04:55:25;;;;;;;7.07;4.60;;;18.20;99.90;;;;;;5050913;28;20208;-67
2022/06/28 04:57:51;;;;;;;4.77;4.37;;;18.10;99.90;;;;;;5050726;28;20204;-66
2022/06/28 05:00:17;;;;;;;3.63;3.33;;;18.10;99.90;;;;;;5050433;28;20536;-66
2022/06/28 05:02:43;;;;;;;5.10;4.20;;;18.20;99.90;;;;;;5050785;28;20301;-66
2022/06/28 05:05:09;;;;;;;4.90;4.10;;;18.20;99.90;;;;;;5050378;28;20412;-66
2022/06/28 05:07:36;;;;;;;5.07;3.10;;;18.00;99.90;;;;;;5050296;28;20211;-66
2022/06/28 05:10:03;;;;;;;3.90;3.50;;;18.10;99.90;;;;;;5050473;28;20405;-66
2022/06/28 05:12:29;;;;;;;4.20;3.60;;;18.00;99.90;;;;;;5050414;28;20404;-66
2022/06/28 05:14:54;;;;;;;4.90;3.23;;;18.00;99.90;;;;;;5050178;28;20986;-66
2022/06/28 05:17:20;;;;;;;4.87;3.83;;;18.00;99.90;;;;;;5050155;28;20213;-66
2022/06/28 05:19:45;;;;;;;4.23;3.83;;;18.00;99.90;;;;;;5052021;28;20232;-66
2022/06/28 05:22:11;;;;;;;3.97;3.57;;;18.00;99.90;;;;;;5050823;28;20268;-65
2022/06/28 05:24:37;;;;;;;4.43;4.00;;;17.90;99.90;;;;;;5050148;28;20174;-66
2022/06/28 05:27:04;;;;;;;4.33;3.67;;;17.90;99.90;;;;;;5050442;28;20173;-66
2022/06/28 05:29:30;;;;;;;4.60;4.20;;;18.00;99.90;;;;;;5049873;28;20423;-66
2022/06/28 05:31:56;;;;;;;4.07;3.67;;;17.90;99.90;;;;;;5049995;28;20426;-66
2022/06/28 05:34:22;;;;;;;4.70;3.90;;;17.90;99.90;;;;;;5050251;28;20462;-66
2022/06/28 05:36:48;;;;;;;4.00;3.63;;;17.90;99.90;;;;;;5050174;28;20412;-67
2022/06/28 05:39:14;;;;;;;4.73;4.30;;;17.80;99.90;;;;;;5050407;28;20424;-67
2022/06/28 05:41:41;;;;;;;5.00;3.87;;;17.80;99.90;;;;;;5050368;28;20434;-67
2022/06/28 05:44:07;;;;;;;3.80;3.23;;;17.70;99.90;;;;;;5050037;28;20551;-66
2022/06/28 05:46:33;;;;;;;3.37;3.07;;;17.70;99.90;;;;;;5050254;28;20474;-67
2022/06/28 05:48:59;;;;;;;3.73;3.43;;;17.80;99.90;;;;;;5050423;28;20420;-67
2022/06/28 05:51:25;;;;;;;3.63;3.23;;;17.80;99.90;;;;;;5050315;28;20169;-67
2022/06/28 05:53:50;;;;;;;4.60;3.80;;;17.90;99.90;;;;;;5049979;28;20483;-67
2022/06/28 05:56:16;;;;;;;3.40;2.73;;;17.80;99.90;;;;;;5050347;28;20165;-67
2022/06/28 05:58:42;;;;;;;3.87;2.90;;;17.90;99.90;;;;;;5049984;28;20244;-67
2022/06/28 06:01:07;;;;;;;3.50;2.80;;;18.10;99.90;;;;;;5050103;28;20184;-66
2022/06/28 06:03:33;;;;;;;2.80;2.60;;;18.00;99.90;;;;;;5050227;28;20177;-66
2022/06/28 06:05:59;;;;;;;3.10;2.83;;;17.90;99.90;;;;;;5050149;28;20166;-67
2022/06/28 06:08:25;;;;;;;2.77;2.57;;;18.00;99.90;;;;;;5071815;23;20499;-68
2022/06/28 06:10:50;;;;;;;2.33;2.13;;;17.90;99.90;;;;;;5051660;28;20822;-67
2022/06/28 06:13:16;;;;;;;3.10;2.80;;;18.00;99.90;;;;;;5051550;28;20214;-69
2022/06/28 06:15:41;;;;;;;2.63;2.43;;;18.10;99.90;;;;;;5033608;28;20352;-68
2022/06/28 06:18:07;;;;;;;5.70;2.97;;;18.10;99.90;;;;;;5051685;28;20172;-68
2022/06/28 06:20:33;;;;;;;3.23;2.57;;;18.20;99.90;;;;;;5051787;28;20185;-69
2022/06/28 06:22:58;;;;;;;3.07;2.77;;;18.40;99.90;;;;;;5051418;28;20766;-69
2022/06/28 06:25:24;;;;;;;2.37;2.17;;;18.30;99.90;;;;;;5051362;28;20197;-70
2022/06/28 06:27:49;;;;;;;2.50;2.30;;;18.40;99.90;;;;;;5051501;28;20205;-70
2022/06/28 06:30:15;;;;;;;3.20;2.90;;;18.40;99.90;;;;;;5051042;28;20509;-69
2022/06/28 06:32:41;;;;;;;3.00;2.70;;;18.50;99.90;;;;;;5052276;28;20171;-69
2022/06/28 06:35:07;;;;;;;2.30;2.10;;;18.70;99.90;;;;;;5054926;28;20174;-69
2022/06/28 06:37:32;;;;;;;2.20;1.90;;;18.50;99.90;;;;;;5037288;28;20224;-69
2022/06/28 06:39:58;;;;;;;2.43;2.23;;;18.80;99.90;;;;;;5055171;28;20425;-69
2022/06/28 06:42:24;;;;;;;3.17;2.57;;;18.90;99.90;;;;;;5055103;28;20230;-70
2022/06/28 06:44:50;;;;;;;2.20;2.00;;;19.00;99.90;;;;;;5055091;28;20176;-70
2022/06/28 06:47:16;;;;;;;2.93;2.60;;;19.10;99.90;;;;;;5055218;28;20529;-69
2022/06/28 06:49:41;;;;;;;3.00;2.20;;;19.20;99.90;;;;;;5055075;28;20609;-69
2022/06/28 06:52:07;;;;;;;2.80;2.17;;;19.10;99.90;;;;;;5036950;28;20759;-69
2022/06/28 06:54:33;;;;;;;1.90;1.77;;;19.50;99.90;;;;;;5054664;28;20209;-69
2022/06/28 06:56:58;;;;;;;2.20;2.00;;;19.80;99.90;;;;;;5055032;28;20757;-69
2022/06/28 06:59:24;;;;;;;2.40;2.07;;;19.50;99.90;;;;;;5054644;28;20187;-69
2022/06/28 07:01:50;;;;;;;2.30;2.10;;;19.40;99.90;;;;;;5055038;28;20507;-69
2022/06/28 07:04:16;;;;;;;2.30;2.10;;;20.40;99.90;;;;;;5054712;28;20409;-69
2022/06/28 07:06:42;;;;;;;2.10;1.90;;;20.70;99.90;;;;;;5054334;28;20206;-70
2022/06/28 07:09:08;;;;;;;2.50;2.17;;;20.70;99.90;;;;;;5054761;28;20204;-70
2022/06/28 07:11:34;;;;;;;1.60;1.50;;;21.00;99.90;;;;;;5054659;28;20418;-69
2022/06/28 07:14:00;;;;;;;1.60;1.50;;;21.10;99.90;;;;;;5054433;28;20254;-69
2022/06/28 07:16:26;;;;;;;1.60;1.50;;;21.30;99.90;;;;;;5036509;28;20458;-69
2022/06/28 07:18:52;;;;;;;1.97;1.43;;;20.90;99.90;;;;;;5054477;28;20421;-69
2022/06/28 07:21:17;;;;;;;1.53;1.43;;;21.00;99.90;;;;;;5054225;28;20170;-70
2022/06/28 07:23:43;;;;;;;1.70;1.60;;;21.00;99.90;;;;;;5054562;28;20198;-70
2022/06/28 07:26:09;;;;;;;1.80;1.70;;;21.00;99.90;;;;;;5054196;28;20612;-69
2022/06/28 07:28:35;;;;;;;1.50;1.40;;;21.40;99.90;;;;;;5054507;28;20560;-69
2022/06/28 07:31:01;;;;;;;1.63;1.53;;;22.00;99.90;;;;;;5054285;28;20404;-69
2022/06/28 07:33:26;;;;;;;1.50;1.40;;;22.80;99.90;;;;;;5054184;28;20196;-69
2022/06/28 07:35:52;;;;;;;2.03;1.83;;;22.80;99.90;;;;;;5054240;28;20663;-69
2022/06/28 07:38:17;;;;;;;1.73;1.63;;;21.80;99.90;;;;;;5054081;28;20213;-69
2022/06/28 07:40:43;;;;;;;1.40;1.30;;;21.00;99.90;;;;;;5054099;28;20539;-69
2022/06/28 07:43:08;;;;;;;1.57;1.47;;;21.70;99.90;;;;;;5053923;28;20638;-68
2022/06/28 07:45:39;;;;;;;1.33;1.23;;;21.80;99.90;;;;;;5052510;28;20177;-68
2022/06/28 07:48:06;;;;;;;1.60;1.30;;;21.30;99.90;;;;;;5054137;28;20177;-69
2022/06/28 07:53:16;;;;;;;2.07;1.30;;;21.40;99.90;;;;;;5053827;28;20581;-69
2022/06/28 07:55:41;;;;;;;1.37;1.23;;;21.80;99.90;;;;;;5053541;28;20501;-69
2022/06/28 07:58:07;;;;;;;1.20;1.10;;;22.00;99.90;;;;;;5053809;28;20172;-69
2022/06/28 08:00:33;;;;;;;1.50;1.40;;;22.50;99.90;;;;;;5053713;28;20168;-68
2022/06/28 08:02:58;;;;;;;1.40;1.30;;;22.40;99.90;;;;;;5036218;28;20228;-69
2022/06/28 08:05:25;;;;;;;1.50;1.40;;;21.80;99.90;;;;;;5053445;28;20472;-69
2022/06/28 08:07:50;;;;;;;1.37;1.23;;;22.20;99.90;;;;;;5053775;28;20654;-69
2022/06/28 08:10:17;;;;;;;2.00;1.43;;;22.20;99.90;;;;;;5053970;28;20416;-69
2022/06/28 08:12:43;;;;;;;1.07;0.97;;;22.90;99.90;;;;;;5054617;28;20592;-70
2022/06/28 08:15:09;;;;;;;1.30;1.20;;;23.60;99.90;;;;;;5053886;28;20402;-70
2022/06/28 08:17:35;;;;;;;1.37;1.27;;;22.50;99.90;;;;;;5054386;28;20557;-70
2022/06/28 08:20:01;;;;;;;1.10;1.00;;;22.40;99.90;;;;;;5036895;28;20441;-69
2022/06/28 08:22:26;;;;;;;1.20;1.10;;;22.90;99.90;;;;;;5054864;28;20759;-70
2022/06/28 08:24:52;;;;;;;1.77;1.30;;;24.30;99.90;;;;;;5035714;28;20817;-68
2022/06/28 08:27:18;;;;;;;1.70;1.20;;;24.50;99.90;;;;;;5053681;28;20166;-68
2022/06/28 08:29:45;;;;;;;1.00;0.90;;;25.20;99.90;;;;;;5054090;28;20190;-68
2022/06/28 08:32:11;;;;;;;1.03;0.93;;;23.90;99.90;;;;;;5054610;28;20166;-69
2022/06/28 08:34:37;;;;;;;1.10;1.00;;;23.10;99.90;;;;;;5053734;28;20466;-69
2022/06/28 08:37:04;;;;;;;1.50;0.90;;;23.60;99.90;;;;;;5053742;28;20463;-68
2022/06/28 08:39:30;;;;;;;0.90;0.90;;;24.70;99.90;;;;;;5053538;28;20429;-68
2022/06/28 08:41:57;;;;;;;1.20;0.73;;;25.00;99.90;;;;;;5054099;28;20772;-68
2022/06/28 08:44:24;;;;;;;0.87;0.77;;;25.60;99.90;;;;;;5053470;28;20667;-69
2022/06/28 08:46:52;;;;;;;1.33;1.23;;;26.50;99.90;;;;;;5053159;28;20409;-69
2022/06/28 08:49:56;;;;;;;1.00;0.90;;;25.90;99.90;;;;;;5053832;28;20780;-69
2022/06/28 08:52:23;;;;;;;2.10;1.00;;;25.90;99.90;;;;;;5054013;28;20790;-69
2022/06/28 08:54:50;;;;;;;2.67;0.90;;;25.60;99.90;;;;;;5035160;28;20448;-68
2022/06/28 08:57:19;;;;;;;0.80;0.80;;;25.70;99.90;;;;;;5054318;28;20459;-69
2022/06/28 08:59:46;;;;;;;1.23;1.00;;;26.70;99.90;;;;;;5053711;28;20826;-69
2022/06/28 09:02:14;;;;;;;0.70;0.70;;;25.90;99.90;;;;;;5054434;28;20777;-69
2022/06/28 09:04:40;;;;;;;1.17;1.07;;;25.30;99.90;;;;;;5053341;28;20417;-69
2022/06/28 09:07:06;;;;;;;1.40;1.00;;;24.60;99.90;;;;;;5053591;28;20427;-69
2022/06/28 09:09:31;;;;;;;1.20;1.10;;;25.10;99.90;;;;;;5053436;28;20445;-70
2022/06/28 09:11:57;;;;;;;1.07;0.97;;;25.80;99.90;;;;;;5052749;28;20216;-70
2022/06/28 09:14:33;;;;;;;0.97;0.90;;;25.30;99.90;;;;;;5052318;28;20328;-69
2022/06/28 09:17:17;;;;;;;1.47;1.37;;;25.10;99.90;;;;;;5035674;28;20418;-69
2022/06/28 09:19:43;;;;;;;0.90;0.90;;;26.10;99.90;;;;;;5052765;28;20490;-69
2022/06/28 09:22:08;;;;;;;0.80;0.80;;;25.70;99.90;;;;;;5053041;28;20946;-68
2022/06/28 09:24:35;;;;;;;1.70;0.70;;;25.90;99.90;;;;;;5051973;28;20175;-68
2022/06/28 09:27:04;;;;;;;1.00;0.90;;;25.30;99.90;;;;;;5052749;28;20178;-68
2022/06/28 09:29:47;;;;;;;0.80;0.80;;;25.20;99.90;;;;;;5053114;28;20512;-68
2022/06/28 09:32:12;;;;;;;0.70;0.70;;;24.90;99.90;;;;;;5034695;28;20929;-69
2022/06/28 09:34:54;;;;;;;1.00;0.90;;;25.10;99.90;;;;;;5052330;28;20460;-68
2022/06/28 09:37:32;;;;;;;0.90;0.80;;;25.00;99.90;;;;;;5053099;28;20158;-69
2022/06/28 09:40:07;;;;;;;1.20;1.10;;;24.50;99.90;;;;;;5052950;28;20511;-69
2022/06/28 09:42:33;;;;;;;1.00;0.90;;;24.50;99.90;;;;;;5052956;28;20400;-70
2022/06/28 09:45:00;;;;;;;0.90;0.90;;;25.80;99.90;;;;;;5035561;28;20416;-70
2022/06/28 09:47:25;;;;;;;1.57;0.90;;;26.90;99.90;;;;;;5053913;28;20189;-70
2022/06/28 09:49:51;;;;;;;0.90;0.73;;;26.70;99.90;;;;;;5053873;28;20428;-70
2022/06/28 09:52:22;;;;;;;1.00;0.90;;;27.10;99.90;;;;;;5053002;28;20190;-69
2022/06/28 09:54:53;;;;;;;1.17;0.90;;;26.90;99.90;;;;;;5034762;28;20767;-69
2022/06/28 09:57:20;;;;;;;0.80;0.80;;;25.10;99.90;;;;;;5052520;28;20531;-70
2022/06/28 09:59:46;;;;;;;1.03;0.93;;;25.80;99.90;;;;;;5052625;28;20436;-70
2022/06/28 10:02:17;;;;;;;0.70;0.70;;;25.80;99.90;;;;;;5051784;28;20398;-70
2022/06/28 10:04:44;;;;;;;1.40;1.00;;;25.90;99.90;;;;;;5051448;28;20640;-69
2022/06/28 10:07:11;;;;;;;1.00;0.90;;;25.00;99.90;;;;;;5052004;28;20409;-70
2022/06/28 10:09:37;;;;;;;0.97;0.90;;;24.30;99.90;;;;;;5038068;28;21034;-69
2022/06/28 10:15:01;;;;;;;1.20;1.10;;;25.90;99.90;;;;;;5055590;28;20901;-70
2022/06/28 10:17:48;;;;;;;2.37;0.93;;;26.10;99.90;;;;;;5056154;28;20434;-70
2022/06/28 10:20:26;;;;;;;0.97;0.90;;;25.00;99.90;;;;;;5055988;28;20423;-70
2022/06/28 10:22:52;;;;;;;1.10;1.00;;;25.10;99.90;;;;;;5055913;28;20408;-69
2022/06/28 10:25:23;;;;;;;2.13;0.93;;;24.90;99.90;;;;;;5055458;28;20400;-70
2022/06/28 10:27:52;;;;;;;0.80;0.77;;;25.10;99.90;;;;;;5056014;28;20432;-70
2022/06/28 10:30:26;;;;;;;0.90;0.90;;;24.40;99.90;;;;;;5038553;28;20445;-70
2022/06/28 10:33:00;;;;;;;0.80;0.80;;;24.40;99.90;;;;;;5055359;28;20781;-70
2022/06/28 10:35:29;;;;;;;0.90;0.80;;;24.30;99.90;;;;;;5055287;28;20414;-70
2022/06/28 10:38:10;;;;;;;0.80;0.80;;;24.70;99.90;;;;;;5055170;28;20406;-70
2022/06/28 10:40:41;;;;;;;1.07;0.97;;;24.50;99.90;;;;;;5055233;28;20399;-69
2022/06/28 10:43:08;;;;;;;0.90;0.90;;;24.70;99.90;;;;;;5055030;28;20739;-69
2022/06/28 10:46:04;;;;;;;1.20;1.00;;;24.50;99.90;;;;;;5054694;28;20423;-70
2022/06/28 10:48:31;;;;;;;0.80;0.80;;;24.90;99.90;;;;;;5054905;28;20759;-70
2022/06/28 10:51:03;;;;;;;0.90;0.87;;;24.80;99.90;;;;;;5055292;28;20457;-69
2022/06/28 10:53:33;;;;;;;1.10;0.90;;;24.80;99.90;;;;;;5054829;28;20463;-68
2022/06/28 10:56:12;;;;;;;0.80;0.80;;;24.80;99.90;;;;;;5054805;28;20403;-69
2022/06/28 10:59:11;;;;;;;1.03;1.00;;;25.20;99.90;;;;;;5054584;28;20507;-69
2022/06/28 11:01:39;;;;;;;1.17;1.07;;;25.20;99.90;;;;;;5001029;28;20778;-69
2022/06/28 11:04:21;;;;;;;1.00;0.90;;;25.10;99.90;;;;;;5054645;28;20546;-70
2022/06/28 11:06:49;;;;;;;0.80;0.80;;;25.30;99.90;;;;;;5054533;28;20410;-69
2022/06/28 11:09:30;;;;;;;0.90;0.80;;;25.40;99.90;;;;;;5054326;28;20449;-70
2022/06/28 11:12:06;;;;;;;0.97;0.97;;;25.70;99.90;;;;;;5054406;28;20417;-70
2022/06/28 11:14:34;;;;;;;0.80;0.80;;;25.40;99.90;;;;;;5053999;28;20531;-70
2022/06/28 11:17:00;;;;;;;0.70;0.60;;;26.10;99.90;;;;;;5054426;28;20404;-70
2022/06/28 11:19:26;;;;;;;0.90;0.80;;;26.40;99.90;;;;;;5054010;28;20471;-70
2022/06/28 11:21:55;;;;;;;1.67;0.80;;;26.20;99.90;;;;;;5054231;28;20405;-70
2022/06/28 11:24:23;;;;;;;1.00;1.00;;;25.70;99.90;;;;;;5054229;28;20171;-69
2022/06/28 11:29:33;;;;;;;0.93;0.80;;;25.60;99.90;;;;;;5054134;28;20431;-70
2022/06/28 11:31:59;;;;;;;0.83;0.67;;;25.80;99.90;;;;;;5054118;28;20596;-68
2022/06/28 11:34:25;;;;;;;0.80;0.80;;;25.40;99.90;;;;;;5053828;28;20220;-68
2022/06/28 11:36:55;;;;;;;0.80;0.70;;;25.40;99.90;;;;;;5054554;28;20261;-69
2022/06/28 11:39:23;;;;;;;1.10;0.70;;;24.60;99.90;;;;;;5054295;28;20563;-69
2022/06/28 11:41:53;;;;;;;0.80;0.80;;;24.80;99.90;;;;;;5053798;28;20404;-69
2022/06/28 11:44:20;;;;;;;1.53;0.90;;;25.20;99.90;;;;;;5053737;28;20476;-69
2022/06/28 11:46:48;;;;;;;1.40;0.90;;;25.10;99.90;;;;;;5053859;28;21004;-70
2022/06/28 11:49:24;;;;;;;0.73;0.73;;;24.90;99.60;;;;;;5053742;28;20511;-69
2022/06/28 11:51:50;;;;;;;0.90;0.90;;;24.80;99.60;;;;;;5053666;28;20427;-69
2022/06/28 11:54:16;;;;;;;1.07;0.80;;;24.90;98.90;;;;;;5053569;28;20446;-69
2022/06/28 11:56:46;;;;;;;0.83;0.77;;;24.80;98.50;;;;;;5053438;28;20176;-69
2022/06/28 11:59:13;;;;;;;0.70;0.63;;;24.70;99.70;;;;;;5053535;28;20417;-69
2022/06/28 12:01:40;;;;;;;0.97;0.80;;;24.70;99.60;;;;;;5053410;28;20440;-69
2022/06/28 12:04:07;;;;;;;0.93;0.93;;;24.50;99.80;;;;;;5053519;28;20413;-69
2022/06/28 12:06:34;;;;;;;0.70;0.70;;;24.50;99.20;;;;;;5053387;28;20417;-69
2022/06/28 12:09:04;;;;;;;1.20;0.90;;;24.60;99.50;;;;;;5074797;22;20482;-65
2022/06/28 12:11:42;;;;;;;0.80;0.80;;;24.50;99.70;;;;;;5052395;28;20401;-65
2022/06/28 12:14:16;;;;;;;0.87;0.73;;;25.30;99.00;;;;;;5052862;28;20819;-66
2022/06/28 12:16:56;;;;;;;1.07;0.97;;;25.50;97.70;;;;;;5052708;28;20454;-66
2022/06/28 12:19:30;;;;;;;1.20;1.03;;;25.60;95.40;;;;;;5052573;28;20430;-66
2022/06/28 12:22:11;;;;;;;1.20;1.10;;;25.00;96.80;;;;;;5052217;28;20427;-66
2022/06/28 12:24:39;;;;;;;1.43;1.07;;;25.40;97.20;;;;;;5052603;28;20823;-66
2022/06/28 12:27:05;;;;;;;1.00;0.83;;;25.50;95.90;;;;;;5052469;28;20492;-65
2022/06/28 12:29:31;;;;;;;1.03;0.93;;;25.50;96.00;;;;;;5052041;28;20514;-66
2022/06/28 12:31:56;;;;;;;1.07;0.97;;;25.10;95.80;;;;;;5051631;28;20405;-66
2022/06/28 12:34:22;;;;;;;1.03;0.90;;;25.20;94.70;;;;;;5052063;28;20191;-66
2022/06/28 12:36:47;;;;;;;1.10;1.00;;;25.50;94.30;;;;;;5052063;28;20171;-66
2022/06/28 12:39:13;;;;;;;1.20;1.10;;;25.40;94.70;;;;;;5052309;28;20179;-66
2022/06/28 12:41:38;;;;;;;1.00;0.90;;;25.40;94.20;;;;;;5052591;28;20220;-66
2022/06/28 12:44:04;;;;;;;0.73;0.73;;;25.60;94.00;;;;;;5051901;28;20170;-65
2022/06/28 12:46:29;;;;;;;1.37;1.00;;;25.30;94.30;;;;;;5052022;28;20182;-66
2022/06/28 12:48:55;;;;;;;0.80;0.80;;;25.90;94.00;;;;;;5051626;28;20198;-66
2022/06/28 12:51:21;;;;;;;1.53;1.00;;;26.20;94.40;;;;;;5051768;28;20213;-66
2022/06/28 12:53:47;;;;;;;1.10;1.00;;;26.70;94.20;;;;;;5052204;28;20223;-66
2022/06/28 12:56:15;;;;;;;0.90;0.90;;;27.20;92.80;;;;;;5051673;28;20579;-66
2022/06/28 12:58:42;;;;;;;0.80;0.80;;;26.50;92.00;;;;;;5051882;28;20248;-66
2022/06/28 13:01:07;;;;;;;0.80;0.80;;;26.30;93.00;;;;;;5051935;28;20431;-66
2022/06/28 13:03:44;;;;;;;0.90;0.90;;;26.30;92.90;;;;;;5051980;28;20901;-67
2022/06/28 13:06:10;;;;;;;1.47;0.90;;;26.10;93.20;;;;;;5051664;28;20169;-67
2022/06/28 13:08:35;;;;;;;0.77;0.70;;;25.50;93.60;;;;;;5051139;28;20473;-66